Time;durP1;ratioP1;P1;durP2;ratioP2;P2;SDS_P1;SDS_P2;PMS_P1;PMS_P2;Temp;Humidity;BMP_temperature;BMP_pressure;BME280_temperature;BME280_humidity;BME280_pressure;Samples;Min_cycle;Max_cycle;Signal;HPM_P1;HPM_P2
2022/10/19 00:01:08;;;;;;;10.87;4.27;;;14.40;99.90;;;;;;5054652;28;20206;-57
2022/10/19 00:03:36;;;;;;;10.10;4.60;;;14.30;99.90;;;;;;5054322;28;20305;-58
2022/10/19 00:06:13;;;;;;;10.47;5.00;;;14.30;99.90;;;;;;5054431;28;20212;-57
2022/10/19 00:08:40;;;;;;;6.83;4.53;;;14.20;99.90;;;;;;5054319;28;20736;-58
2022/10/19 00:11:07;;;;;;;9.17;4.67;;;14.30;99.90;;;;;;5054106;28;20216;-57
2022/10/19 00:13:34;;;;;;;12.07;4.50;;;14.30;99.90;;;;;;5053648;28;20229;-58
2022/10/19 00:16:01;;;;;;;6.10;4.63;;;14.30;99.90;;;;;;5053054;28;20271;-58
2022/10/19 00:18:28;;;;;;;7.67;4.67;;;14.30;99.90;;;;;;5054161;28;20205;-57
2022/10/19 00:21:03;;;;;;;9.23;4.80;;;14.30;99.90;;;;;;5054019;28;20217;-57
2022/10/19 00:23:32;;;;;;;7.27;5.17;;;14.40;99.90;;;;;;5053481;28;20204;-57
2022/10/19 00:26:00;;;;;;;9.53;5.93;;;14.50;99.90;;;;;;5053670;28;20208;-57
2022/10/19 00:28:27;;;;;;;10.60;5.40;;;14.60;99.90;;;;;;5054053;28;20205;-58
2022/10/19 00:30:53;;;;;;;7.43;5.50;;;14.70;99.90;;;;;;5053846;28;20206;-55
2022/10/19 00:33:21;;;;;;;6.40;5.47;;;14.90;99.90;;;;;;5053263;28;20229;-56
2022/10/19 00:35:48;;;;;;;9.83;5.07;;;14.90;99.90;;;;;;5053678;28;20592;-56
2022/10/19 00:38:16;;;;;;;9.67;4.93;;;15.10;99.90;;;;;;5053827;28;20218;-58
2022/10/19 00:40:44;;;;;;;12.10;5.40;;;15.20;99.90;;;;;;5053615;28;20209;-57
2022/10/19 00:43:15;;;;;;;11.13;5.93;;;15.20;99.90;;;;;;5053042;28;20286;-57
2022/10/19 00:45:42;;;;;;;8.70;5.70;;;15.20;99.90;;;;;;5053463;28;20625;-57
2022/10/19 00:48:10;;;;;;;8.17;5.53;;;15.10;99.90;;;;;;5048051;28;20205;-59
2022/10/19 00:50:37;;;;;;;12.83;5.93;;;15.00;99.90;;;;;;5051380;28;20201;-60
2022/10/19 00:53:04;;;;;;;10.30;6.03;;;15.00;99.90;;;;;;5050343;28;20312;-58
2022/10/19 00:55:31;;;;;;;8.20;6.07;;;14.90;99.90;;;;;;5052741;28;20210;-57
2022/10/19 00:58:01;;;;;;;9.17;5.80;;;14.80;99.90;;;;;;5051842;28;20296;-56
2022/10/19 01:00:28;;;;;;;7.70;5.90;;;14.80;99.90;;;;;;5052036;28;20212;-58
2022/10/19 01:02:57;;;;;;;12.13;6.83;;;14.80;99.90;;;;;;5051346;28;20313;-57
2022/10/19 01:05:25;;;;;;;9.40;6.40;;;14.80;99.90;;;;;;5052477;28;20589;-57
2022/10/19 01:07:52;;;;;;;9.23;6.27;;;14.80;99.90;;;;;;5052285;28;20244;-57
2022/10/19 01:10:27;;;;;;;9.70;6.90;;;14.80;99.90;;;;;;5051782;28;20699;-57
2022/10/19 01:13:14;;;;;;;14.20;7.30;;;14.90;99.90;;;;;;5051677;28;20221;-57
2022/10/19 01:15:48;;;;;;;13.13;7.57;;;15.00;99.90;;;;;;5051887;28;20301;-58
2022/10/19 01:18:21;;;;;;;13.07;7.37;;;15.10;99.90;;;;;;5051913;28;20201;-57
2022/10/19 01:21:13;;;;;;;10.90;7.13;;;15.20;99.90;;;;;;5052206;28;20216;-58
2022/10/19 01:24:13;;;;;;;11.43;6.40;;;15.30;99.90;;;;;;5052767;28;20692;-59
2022/10/19 01:27:28;;;;;;;14.87;6.57;;;15.50;99.90;;;;;;5053140;28;20296;-58
2022/10/19 01:30:05;;;;;;;12.33;6.80;;;15.50;99.90;;;;;;4991309;28;20262;-59
2022/10/19 01:32:42;;;;;;;10.77;6.15;;;15.60;99.90;;;;;;5041557;28;20224;-58
2022/10/19 01:35:17;;;;;;;11.43;5.77;;;15.70;99.90;;;;;;5053253;28;20225;-58
2022/10/19 01:37:50;;;;;;;8.73;5.33;;;15.60;99.90;;;;;;5053598;28;20209;-59
2022/10/19 01:40:28;;;;;;;7.15;5.30;;;15.50;99.90;;;;;;5053949;28;20292;-59
2022/10/19 01:43:01;;;;;;;11.43;5.68;;;15.40;99.90;;;;;;5053406;28;20267;-56
2022/10/19 01:45:35;;;;;;;10.73;5.57;;;15.30;99.90;;;;;;5053406;28;20288;-57
2022/10/19 01:48:07;;;;;;;10.93;5.10;;;15.30;99.90;;;;;;5053665;28;20236;-56
2022/10/19 01:50:38;;;;;;;9.70;5.13;;;15.40;99.90;;;;;;5053525;28;20490;-56
2022/10/19 01:53:08;;;;;;;7.57;4.73;;;15.40;99.90;;;;;;5053105;28;20312;-56
2022/10/19 01:55:39;;;;;;;7.43;5.27;;;15.40;99.90;;;;;;5053445;28;20313;-56
2022/10/19 01:58:09;;;;;;;6.43;5.23;;;15.40;99.90;;;;;;5053997;28;20309;-56
2022/10/19 02:00:41;;;;;;;9.03;5.17;;;15.40;99.90;;;;;;5054101;28;20548;-56
2022/10/19 02:03:10;;;;;;;10.77;5.07;;;15.40;99.90;;;;;;5053283;28;20260;-57
2022/10/19 02:05:38;;;;;;;10.93;5.30;;;15.50;99.90;;;;;;5053847;28;20243;-56
2022/10/19 02:08:12;;;;;;;11.17;6.10;;;15.50;99.90;;;;;;5054354;28;20206;-56
2022/10/19 02:10:42;;;;;;;8.30;4.40;;;15.60;99.90;;;;;;5054158;28;20301;-57
2022/10/19 02:13:11;;;;;;;6.03;4.57;;;15.60;99.90;;;;;;5053616;28;20233;-57
2022/10/19 02:15:43;;;;;;;8.20;4.90;;;15.70;99.90;;;;;;5053984;28;20229;-56
2022/10/19 02:18:13;;;;;;;8.10;4.50;;;15.70;99.90;;;;;;5053647;28;20205;-56
2022/10/19 02:20:40;;;;;;;5.13;4.53;;;15.70;99.90;;;;;;5053430;28;20205;-55
2022/10/19 02:23:07;;;;;;;6.43;4.43;;;15.80;99.90;;;;;;5052824;28;20229;-58
2022/10/19 02:25:34;;;;;;;10.98;5.05;;;15.70;99.90;;;;;;5052825;28;20248;-56
2022/10/19 02:28:02;;;;;;;6.57;4.37;;;15.80;99.90;;;;;;5053482;28;20296;-56
2022/10/19 02:30:29;;;;;;;8.52;4.80;;;15.70;99.90;;;;;;5053432;28;20688;-56
2022/10/19 02:32:58;;;;;;;7.03;5.87;;;15.70;99.90;;;;;;5052621;28;20229;-55
2022/10/19 02:35:24;;;;;;;9.35;6.03;;;15.70;99.90;;;;;;5053116;28;20229;-55
2022/10/19 02:37:52;;;;;;;10.33;4.83;;;15.80;99.90;;;;;;5052383;28;20296;-56
2022/10/19 02:40:19;;;;;;;8.60;4.70;;;15.80;99.90;;;;;;5055728;28;20202;-55
2022/10/19 02:42:54;;;;;;;12.03;4.90;;;15.80;99.90;;;;;;5055684;28;20233;-56
2022/10/19 02:45:25;;;;;;;6.50;5.07;;;15.70;99.90;;;;;;5056158;28;20201;-55
2022/10/19 02:47:57;;;;;;;10.77;5.87;;;15.70;99.90;;;;;;5056000;28;20206;-56
2022/10/19 02:50:26;;;;;;;9.20;5.23;;;15.80;99.90;;;;;;5055710;28;20209;-57
2022/10/19 02:52:53;;;;;;;5.60;5.10;;;15.60;99.90;;;;;;5055359;28;20574;-55
2022/10/19 02:55:20;;;;;;;9.05;5.88;;;15.50;99.90;;;;;;5055559;28;20309;-56
2022/10/19 02:57:46;;;;;;;8.13;5.90;;;15.30;99.90;;;;;;5055440;28;20216;-56
2022/10/19 03:00:13;;;;;;;10.57;6.03;;;15.20;99.90;;;;;;5055437;28;20685;-57
2022/10/19 03:02:40;;;;;;;9.73;6.43;;;15.10;99.90;;;;;;5054957;28;20232;-57
2022/10/19 03:05:08;;;;;;;7.27;6.07;;;15.00;99.90;;;;;;5055351;28;20212;-56
2022/10/19 03:07:36;;;;;;;9.30;6.93;;;15.00;99.90;;;;;;5055358;28;20209;-57
2022/10/19 03:10:03;;;;;;;8.23;6.77;;;15.00;99.90;;;;;;5055426;28;20208;-55
2022/10/19 03:12:30;;;;;;;37.63;27.33;;;15.00;99.90;;;;;;5055034;28;20217;-55
2022/10/19 03:14:57;;;;;;;14.90;9.93;;;15.00;99.90;;;;;;5055257;28;20235;-55
2022/10/19 03:17:24;;;;;;;9.70;5.97;;;15.00;99.90;;;;;;5055553;28;20588;-55
2022/10/19 03:19:51;;;;;;;6.67;5.73;;;14.90;99.90;;;;;;5055045;28;20213;-55
2022/10/19 03:22:17;;;;;;;9.07;5.97;;;14.80;99.90;;;;;;5054882;28;20289;-55
2022/10/19 03:24:46;;;;;;;10.10;6.20;;;14.60;99.90;;;;;;5055953;28;20247;-55
2022/10/19 03:27:12;;;;;;;8.00;5.60;;;14.60;99.90;;;;;;5055517;28;20669;-56
2022/10/19 03:29:39;;;;;;;8.80;6.37;;;14.50;99.90;;;;;;5055579;28;20575;-55
2022/10/19 03:32:06;;;;;;;26.50;20.33;;;14.60;99.90;;;;;;5055501;28;20230;-55
2022/10/19 03:34:33;;;;;;;11.27;6.47;;;14.60;99.90;;;;;;5055257;28;20224;-56
2022/10/19 03:37:00;;;;;;;6.70;6.00;;;14.60;99.90;;;;;;5055020;28;20216;-55
2022/10/19 03:39:26;;;;;;;8.67;5.70;;;14.70;99.90;;;;;;5054959;28;20205;-56
2022/10/19 03:41:54;;;;;;;14.60;9.53;;;14.60;99.90;;;;;;5054722;28;20276;-55
2022/10/19 03:44:21;;;;;;;8.13;5.93;;;14.60;99.90;;;;;;5055994;28;20218;-55
2022/10/19 03:46:48;;;;;;;9.10;6.50;;;14.60;99.90;;;;;;5037660;28;20197;-56
2022/10/19 03:49:15;;;;;;;10.97;7.33;;;14.60;99.90;;;;;;5055476;28;20202;-56
2022/10/19 03:51:42;;;;;;;13.53;6.63;;;14.60;99.90;;;;;;5054578;28;20226;-55
2022/10/19 03:54:13;;;;;;;15.53;8.23;;;14.50;99.90;;;;;;5054943;28;20224;-57
2022/10/19 03:56:40;;;;;;;8.57;6.63;;;14.50;99.90;;;;;;5056330;28;20277;-56
2022/10/19 03:59:12;;;;;;;8.67;6.37;;;14.40;99.90;;;;;;5055228;28;20213;-57
2022/10/19 04:01:41;;;;;;;8.70;6.70;;;14.40;99.90;;;;;;5054715;28;20279;-56
2022/10/19 04:04:11;;;;;;;9.63;6.40;;;14.30;99.90;;;;;;5054135;28;20307;-57
2022/10/19 04:06:40;;;;;;;11.00;7.70;;;14.30;99.90;;;;;;5054380;28;20233;-56
2022/10/19 04:09:08;;;;;;;9.23;7.10;;;14.30;99.90;;;;;;5054639;28;20241;-56
2022/10/19 04:11:36;;;;;;;7.30;6.60;;;14.20;99.90;;;;;;5054541;28;20222;-57
2022/10/19 04:14:02;;;;;;;6.97;6.27;;;14.30;99.90;;;;;;5054265;28;20212;-56
2022/10/19 04:16:31;;;;;;;8.53;6.83;;;14.10;99.90;;;;;;5054224;28;20205;-58
2022/10/19 04:18:58;;;;;;;11.00;7.60;;;14.10;99.90;;;;;;5054446;28;20209;-57
2022/10/19 04:21:27;;;;;;;11.93;8.07;;;14.10;99.90;;;;;;5054733;28;20291;-57
2022/10/19 04:23:57;;;;;;;12.53;8.57;;;14.20;99.90;;;;;;5053995;28;20208;-56
2022/10/19 04:26:24;;;;;;;13.37;8.07;;;14.20;99.90;;;;;;5054577;28;20237;-56
2022/10/19 04:28:51;;;;;;;10.10;7.57;;;14.10;99.90;;;;;;5054137;28;20209;-55
2022/10/19 04:31:18;;;;;;;10.80;7.30;;;14.10;99.90;;;;;;5053640;28;20206;-56
2022/10/19 04:33:46;;;;;;;7.70;6.90;;;14.00;99.90;;;;;;5053239;28;20302;-56
2022/10/19 04:36:13;;;;;;;10.67;7.40;;;14.10;99.90;;;;;;5053729;28;20221;-56
2022/10/19 04:38:40;;;;;;;9.40;7.23;;;14.00;99.90;;;;;;5053366;28;20220;-57
2022/10/19 04:41:09;;;;;;;9.77;7.67;;;14.10;99.90;;;;;;5053603;28;20557;-55
2022/10/19 04:43:36;;;;;;;10.03;8.23;;;14.10;99.90;;;;;;5053305;28;20209;-55
2022/10/19 04:46:05;;;;;;;17.87;10.93;;;14.10;99.90;;;;;;5053491;28;20625;-56
2022/10/19 04:48:33;;;;;;;11.50;8.87;;;14.20;99.90;;;;;;5053592;28;20233;-55
2022/10/19 04:51:01;;;;;;;11.40;8.03;;;14.30;99.90;;;;;;5053540;28;20209;-56
2022/10/19 04:53:28;;;;;;;10.87;8.23;;;14.40;99.90;;;;;;5053023;28;20324;-58
2022/10/19 04:55:55;;;;;;;11.30;7.90;;;14.40;99.90;;;;;;5053450;28;20570;-55
2022/10/19 04:58:22;;;;;;;9.90;7.93;;;14.50;99.90;;;;;;5053183;28;20210;-55
2022/10/19 05:00:49;;;;;;;10.57;8.07;;;14.50;99.90;;;;;;5053334;28;20208;-56
2022/10/19 05:03:16;;;;;;;11.17;7.90;;;14.40;99.90;;;;;;5052491;28;20709;-55
2022/10/19 05:05:43;;;;;;;9.80;8.40;;;14.40;99.90;;;;;;5053138;28;20201;-56
2022/10/19 05:08:11;;;;;;;14.47;9.07;;;14.40;99.90;;;;;;5053796;28;20705;-56
2022/10/19 05:10:38;;;;;;;12.27;7.90;;;14.40;99.90;;;;;;5053458;28;20213;-55
2022/10/19 05:13:05;;;;;;;13.70;9.23;;;14.30;99.90;;;;;;5052592;28;20248;-56
2022/10/19 05:15:33;;;;;;;9.00;7.57;;;14.30;99.90;;;;;;5053527;28;20240;-56
2022/10/19 05:18:00;;;;;;;10.13;7.90;;;14.30;99.90;;;;;;5053334;28;20300;-56
2022/10/19 05:20:27;;;;;;;10.73;7.47;;;14.20;99.90;;;;;;5052826;28;20647;-56
2022/10/19 05:22:54;;;;;;;15.03;7.90;;;14.20;99.90;;;;;;5052316;28;20230;-56
2022/10/19 05:25:22;;;;;;;10.27;7.37;;;14.20;99.90;;;;;;5052812;28;20264;-56
2022/10/19 05:27:52;;;;;;;15.27;7.60;;;14.10;99.90;;;;;;5052696;28;20216;-56
2022/10/19 05:30:20;;;;;;;10.70;7.10;;;14.00;99.90;;;;;;5052955;28;20214;-55
2022/10/19 05:32:48;;;;;;;9.07;7.37;;;14.00;99.90;;;;;;5052009;28;20225;-59
2022/10/19 05:35:14;;;;;;;9.13;7.17;;;13.90;99.90;;;;;;5052286;28;20221;-55
2022/10/19 05:37:41;;;;;;;9.30;6.70;;;13.80;99.90;;;;;;5052480;28;20584;-56
2022/10/19 05:40:10;;;;;;;8.63;6.83;;;13.80;99.90;;;;;;5052357;28;20221;-54
2022/10/19 05:42:38;;;;;;;8.43;7.43;;;13.70;99.90;;;;;;5051885;28;20619;-55
2022/10/19 05:45:05;;;;;;;11.37;6.23;;;13.70;99.90;;;;;;5052616;28;20197;-55
2022/10/19 05:47:34;;;;;;;9.73;7.17;;;13.70;99.90;;;;;;5052710;28;20206;-56
2022/10/19 05:50:00;;;;;;;11.30;7.37;;;13.70;99.90;;;;;;5053167;28;20292;-55
2022/10/19 05:52:28;;;;;;;14.53;7.57;;;13.70;99.90;;;;;;5051940;28;20667;-55
2022/10/19 05:54:57;;;;;;;9.00;6.83;;;13.60;99.90;;;;;;5052257;28;20209;-56
2022/10/19 05:57:24;;;;;;;9.93;6.90;;;13.60;99.90;;;;;;5052208;28;20205;-55
2022/10/19 05:59:55;;;;;;;9.03;7.37;;;13.60;99.90;;;;;;5052244;28;20205;-54
2022/10/19 06:02:22;;;;;;;10.17;7.57;;;13.60;99.90;;;;;;5051815;28;20236;-57
2022/10/19 06:04:49;;;;;;;13.47;7.87;;;13.70;99.90;;;;;;5053028;28;20206;-57
2022/10/19 06:07:16;;;;;;;10.67;6.97;;;13.80;99.90;;;;;;5052154;28;20212;-55
2022/10/19 06:09:44;;;;;;;13.37;7.80;;;13.80;99.90;;;;;;5052677;28;20210;-56
2022/10/19 06:12:11;;;;;;;8.77;7.47;;;13.90;99.90;;;;;;5052830;28;20237;-57
2022/10/19 06:14:38;;;;;;;8.87;7.33;;;14.00;99.90;;;;;;5054520;28;20288;-56
2022/10/19 06:17:06;;;;;;;13.97;7.37;;;14.20;99.90;;;;;;5057444;28;20221;-59
2022/10/19 06:19:33;;;;;;;10.90;7.53;;;14.40;99.90;;;;;;5058011;28;20209;-57
2022/10/19 06:22:00;;;;;;;13.10;9.03;;;14.60;99.90;;;;;;5057920;28;20225;-59
2022/10/19 06:24:27;;;;;;;11.70;8.77;;;14.70;99.90;;;;;;5056537;28;20304;-57
2022/10/19 06:26:54;;;;;;;12.47;8.93;;;14.90;99.90;;;;;;5056687;28;20208;-57
2022/10/19 06:29:21;;;;;;;9.90;8.00;;;15.10;99.90;;;;;;5057066;28;20197;-57
2022/10/19 06:31:48;;;;;;;10.97;7.33;;;15.10;99.90;;;;;;5056710;28;20232;-57
2022/10/19 06:34:16;;;;;;;9.17;7.50;;;15.10;99.90;;;;;;5051415;28;20206;-58
2022/10/19 06:36:43;;;;;;;8.67;7.20;;;15.00;99.90;;;;;;5054576;28;20221;-58
2022/10/19 06:39:10;;;;;;;10.97;7.00;;;14.90;99.90;;;;;;5058311;28;20214;-64
2022/10/19 06:41:37;;;;;;;7.90;7.03;;;14.80;99.90;;;;;;5060943;28;20729;-62
2022/10/19 06:44:04;;;;;;;8.77;7.07;;;14.60;99.90;;;;;;5057078;28;20206;-57
2022/10/19 06:46:32;;;;;;;11.27;7.50;;;14.50;99.90;;;;;;5056994;28;20225;-58
2022/10/19 06:49:01;;;;;;;10.90;8.30;;;14.50;99.90;;;;;;5056888;28;20315;-57
2022/10/19 06:51:32;;;;;;;9.93;8.30;;;14.60;99.90;;;;;;5057794;28;20305;-58
2022/10/19 06:53:59;;;;;;;10.47;8.00;;;14.70;99.90;;;;;;5056831;28;20209;-58
2022/10/19 06:56:27;;;;;;;8.73;7.80;;;14.90;99.90;;;;;;5056660;28;20260;-58
2022/10/19 06:58:55;;;;;;;9.70;7.87;;;15.30;99.90;;;;;;5056387;28;20241;-58
2022/10/19 07:01:22;;;;;;;11.85;7.50;;;16.10;99.90;;;;;;5055938;28;20227;-57
2022/10/19 07:03:50;;;;;;;6.90;6.10;;;17.10;99.90;;;;;;5055775;28;20228;-57
2022/10/19 07:06:18;;;;;;;6.32;5.70;;;17.80;99.90;;;;;;5055797;28;20289;-58
2022/10/19 07:08:46;;;;;;;10.45;6.80;;;18.00;99.90;;;;;;5055324;28;20209;-57
2022/10/19 07:11:17;;;;;;;7.35;6.15;;;18.00;99.90;;;;;;5055337;28;20228;-57
2022/10/19 07:13:44;;;;;;;7.45;5.80;;;17.80;99.90;;;;;;5055009;28;20220;-57
2022/10/19 07:16:13;;;;;;;6.32;5.70;;;17.60;99.90;;;;;;5055258;28;20316;-57
2022/10/19 07:18:41;;;;;;;6.43;5.82;;;17.30;99.90;;;;;;5055249;28;20296;-58
2022/10/19 07:21:09;;;;;;;7.55;6.63;;;17.10;99.90;;;;;;5055279;28;20210;-57
2022/10/19 07:23:38;;;;;;;10.18;6.60;;;16.90;99.90;;;;;;5054842;28;20227;-58
2022/10/19 07:26:10;;;;;;;10.27;6.40;;;16.80;99.90;;;;;;5054643;28;20648;-57
2022/10/19 07:28:38;;;;;;;7.15;6.05;;;16.80;99.90;;;;;;5054965;28;20264;-57
2022/10/19 07:31:07;;;;;;;6.55;5.88;;;16.80;99.90;;;;;;5055016;28;20229;-57
2022/10/19 07:33:34;;;;;;;8.10;6.35;;;16.90;99.90;;;;;;5054597;28;20209;-57
2022/10/19 07:36:01;;;;;;;7.88;6.05;;;17.10;99.90;;;;;;5054782;28;20230;-56
2022/10/19 07:38:29;;;;;;;12.75;6.82;;;17.30;99.90;;;;;;5054852;28;20206;-56
2022/10/19 07:41:04;;;;;;;9.13;5.55;;;17.40;99.90;;;;;;5054714;28;20594;-58
2022/10/19 07:43:32;;;;;;;8.73;6.28;;;17.50;99.90;;;;;;5054827;28;20217;-58
2022/10/19 07:46:01;;;;;;;6.43;5.72;;;17.80;99.90;;;;;;5054437;28;20677;-58
2022/10/19 07:48:28;;;;;;;8.75;6.85;;;18.00;99.90;;;;;;5054622;28;20206;-58
2022/10/19 07:50:55;;;;;;;7.35;6.18;;;18.20;99.90;;;;;;5054496;28;20202;-57
2022/10/19 07:53:22;;;;;;;7.38;6.53;;;18.50;99.90;;;;;;5053843;28;20232;-56
2022/10/19 07:55:49;;;;;;;6.68;6.05;;;18.70;99.90;;;;;;5054530;28;20234;-56
2022/10/19 07:58:16;;;;;;;8.20;6.00;;;18.80;99.90;;;;;;5054248;28;20217;-57
2022/10/19 08:00:44;;;;;;;8.70;6.50;;;18.90;99.90;;;;;;5054371;28;20205;-56
2022/10/19 08:03:11;;;;;;;7.45;5.75;;;19.00;99.90;;;;;;5053713;28;20717;-57
2022/10/19 08:05:38;;;;;;;8.00;4.90;;;19.20;99.90;;;;;;5054701;28;20206;-56
2022/10/19 08:08:06;;;;;;;5.32;4.75;;;19.30;99.90;;;;;;5054101;28;20210;-58
2022/10/19 08:10:32;;;;;;;5.85;4.97;;;19.30;99.90;;;;;;5054092;28;20572;-57
2022/10/19 08:12:59;;;;;;;9.40;5.85;;;19.40;99.90;;;;;;5053385;28;20233;-58
2022/10/19 08:15:27;;;;;;;6.70;4.32;;;19.40;99.90;;;;;;5054009;28;20217;-57
2022/10/19 08:17:55;;;;;;;5.25;4.30;;;19.50;99.90;;;;;;5053913;28;20259;-58
2022/10/19 08:20:22;;;;;;;4.60;4.18;;;19.50;99.90;;;;;;5054069;28;20286;-57
2022/10/19 08:22:49;;;;;;;6.18;4.05;;;19.40;99.90;;;;;;5053338;28;20231;-57
2022/10/19 08:25:16;;;;;;;4.25;3.85;;;19.30;99.90;;;;;;5053864;28;20209;-57
2022/10/19 08:27:43;;;;;;;5.47;3.65;;;19.30;99.90;;;;;;5053816;28;20662;-57
2022/10/19 08:30:10;;;;;;;4.47;4.07;;;19.40;99.90;;;;;;5054078;28;20262;-58
2022/10/19 08:32:37;;;;;;;6.05;4.13;;;19.30;99.90;;;;;;5053483;28;20226;-57
2022/10/19 08:35:06;;;;;;;5.85;3.70;;;19.20;99.90;;;;;;5053951;28;20237;-56
2022/10/19 08:37:33;;;;;;;5.93;3.92;;;19.10;99.90;;;;;;5052813;28;20713;-57
2022/10/19 08:40:00;;;;;;;8.40;4.07;;;18.80;99.90;;;;;;5053812;28;20632;-58
2022/10/19 08:42:40;;;;;;;9.82;4.35;;;18.70;99.90;;;;;;5053562;28;20248;-57
2022/10/19 08:45:33;;;;;;;4.80;3.95;;;18.70;99.90;;;;;;5054666;28;20232;-57
2022/10/19 08:48:12;;;;;;;4.20;3.80;;;18.70;99.90;;;;;;5054345;28;20206;-57
2022/10/19 08:50:43;;;;;;;5.18;3.53;;;18.80;99.90;;;;;;5054018;28;20555;-56
2022/10/19 08:53:14;;;;;;;4.20;3.60;;;18.90;99.90;;;;;;5053283;28;20225;-56
2022/10/19 08:56:04;;;;;;;4.57;3.20;;;19.00;99.90;;;;;;5053547;28;20217;-57
2022/10/19 08:58:40;;;;;;;4.15;2.97;;;19.10;99.90;;;;;;5053718;28;20580;-57
2022/10/19 09:01:12;;;;;;;4.13;2.78;;;19.30;99.90;;;;;;5053908;28;20296;-57
2022/10/19 09:03:46;;;;;;;3.35;2.40;;;19.40;99.90;;;;;;5053039;28;20209;-57
2022/10/19 09:06:22;;;;;;;5.93;2.80;;;19.60;99.90;;;;;;5053565;28;20262;-57
2022/10/19 09:08:51;;;;;;;3.88;2.65;;;19.70;99.90;;;;;;5053532;28;20582;-57
2022/10/19 09:11:22;;;;;;;3.50;2.60;;;19.90;99.90;;;;;;5053515;28;20580;-57
2022/10/19 09:13:50;;;;;;;4.40;2.75;;;19.80;99.90;;;;;;5052866;28;20216;-57
2022/10/19 09:16:20;;;;;;;4.10;2.88;;;19.80;99.90;;;;;;5053364;28;20272;-57
2022/10/19 09:18:48;;;;;;;4.47;3.40;;;19.90;99.90;;;;;;5053676;28;20201;-56
2022/10/19 09:21:20;;;;;;;4.28;3.10;;;20.10;99.90;;;;;;5053110;28;20205;-57
2022/10/19 09:23:54;;;;;;;4.93;2.95;;;20.20;99.90;;;;;;5053001;28;20241;-57
2022/10/19 09:26:25;;;;;;;3.60;2.97;;;20.20;99.90;;;;;;5053061;28;20395;-56
2022/10/19 09:28:56;;;;;;;3.95;3.10;;;20.30;99.90;;;;;;5053420;28;20201;-57
2022/10/19 09:31:28;;;;;;;3.20;2.80;;;20.30;99.90;;;;;;5053129;28;20201;-56
2022/10/19 09:34:00;;;;;;;3.53;2.60;;;20.40;99.90;;;;;;5053239;28;20206;-57
2022/10/19 09:36:36;;;;;;;4.88;2.60;;;20.30;99.90;;;;;;5053362;28;20235;-56
2022/10/19 09:39:03;;;;;;;4.53;2.53;;;20.40;99.90;;;;;;5053038;28;20297;-57
2022/10/19 09:41:30;;;;;;;5.30;2.60;;;20.50;99.90;;;;;;5052727;28;20233;-57
2022/10/19 09:43:57;;;;;;;2.80;2.40;;;20.50;99.90;;;;;;5052018;28;20209;-57
2022/10/19 09:46:35;;;;;;;4.38;2.70;;;20.70;99.90;;;;;;5052866;28;20308;-58
2022/10/19 09:49:04;;;;;;;3.40;2.45;;;20.70;99.90;;;;;;5052983;28;20212;-58
2022/10/19 09:51:50;;;;;;;4.10;2.35;;;20.70;99.90;;;;;;5052915;28;20225;-59
2022/10/19 09:54:26;;;;;;;3.22;2.47;;;20.70;99.90;;;;;;5052296;28;20209;-58
2022/10/19 09:56:55;;;;;;;3.80;2.70;;;20.80;99.90;;;;;;5053644;28;20225;-57
2022/10/19 09:59:23;;;;;;;3.15;2.42;;;20.80;99.90;;;;;;5053976;28;20205;-57
2022/10/19 10:02:02;;;;;;;5.30;2.90;;;20.90;99.90;;;;;;5054389;28;20236;-58
2022/10/19 10:04:30;;;;;;;2.30;2.10;;;20.90;99.90;;;;;;5052995;28;20584;-57
2022/10/19 10:06:58;;;;;;;3.22;2.25;;;20.70;99.90;;;;;;5052634;28;20209;-57
2022/10/19 10:09:28;;;;;;;2.40;2.05;;;20.40;99.90;;;;;;5053007;28;20209;-58
2022/10/19 10:11:58;;;;;;;2.70;2.20;;;20.30;99.90;;;;;;5053128;28;20229;-58
2022/10/19 10:14:29;;;;;;;2.53;2.33;;;20.20;99.90;;;;;;5052888;28;20649;-59
2022/10/19 10:16:56;;;;;;;4.20;2.47;;;20.10;99.90;;;;;;5052945;28;20737;-57
2022/10/19 10:19:28;;;;;;;3.50;2.40;;;19.90;99.90;;;;;;5052798;28;20215;-57
2022/10/19 10:21:56;;;;;;;3.97;2.42;;;19.70;99.90;;;;;;5052857;28;20225;-58
2022/10/19 10:24:26;;;;;;;2.60;2.20;;;19.40;99.90;;;;;;5052280;28;20681;-58
2022/10/19 10:26:55;;;;;;;2.85;2.20;;;19.30;99.90;;;;;;5053308;28;20205;-58
2022/10/19 10:29:24;;;;;;;2.38;2.17;;;19.40;99.90;;;;;;5053345;28;20212;-58
2022/10/19 10:31:54;;;;;;;4.55;2.30;;;19.40;99.90;;;;;;5052766;28;20238;-59
2022/10/19 10:34:34;;;;;;;5.05;2.38;;;19.60;99.90;;;;;;5052103;28;20288;-59
2022/10/19 10:37:04;;;;;;;2.67;2.30;;;19.80;99.90;;;;;;5052622;28;20225;-59
2022/10/19 10:39:33;;;;;;;3.80;2.20;;;20.00;99.90;;;;;;5052581;28;20209;-59
2022/10/19 10:42:05;;;;;;;2.22;1.70;;;20.20;99.90;;;;;;5051992;28;20712;-58
2022/10/19 10:44:35;;;;;;;3.13;1.70;;;20.20;99.90;;;;;;5052759;28;20202;-58
2022/10/19 10:47:07;;;;;;;4.03;2.10;;;20.20;99.90;;;;;;5052968;28;20569;-58
2022/10/19 10:49:37;;;;;;;2.53;1.70;;;20.20;99.90;;;;;;5051944;28;20344;-58
2022/10/19 10:52:06;;;;;;;2.97;2.13;;;20.40;99.90;;;;;;5051900;28;20279;-58
2022/10/19 10:54:35;;;;;;;2.20;1.92;;;20.50;99.90;;;;;;5051047;28;20210;-60
2022/10/19 10:57:12;;;;;;;3.67;1.63;;;20.70;99.90;;;;;;5051434;28;20283;-58
2022/10/19 10:59:49;;;;;;;5.70;2.00;;;21.00;99.90;;;;;;5051833;28;20270;-58
2022/10/19 11:02:33;;;;;;;3.78;1.75;;;21.20;99.90;;;;;;5055427;28;20328;-58
2022/10/19 11:05:05;;;;;;;4.10;1.85;;;21.10;99.90;;;;;;5055599;28;20212;-58
2022/10/19 11:07:34;;;;;;;4.70;1.90;;;20.80;99.90;;;;;;5055901;28;20205;-58
2022/10/19 11:10:08;;;;;;;4.32;2.10;;;20.80;99.90;;;;;;5055636;28;20213;-58
2022/10/19 11:12:39;;;;;;;2.25;1.77;;;20.90;99.90;;;;;;5055120;28;20225;-58
2022/10/19 11:15:15;;;;;;;2.40;1.80;;;21.00;99.90;;;;;;5055878;28;20216;-58
2022/10/19 11:18:05;;;;;;;1.98;1.80;;;21.20;99.90;;;;;;5055609;28;20704;-58
2022/10/19 11:20:34;;;;;;;4.07;1.90;;;21.40;99.90;;;;;;5054879;28;20213;-60
2022/10/19 11:23:12;;;;;;;2.33;1.77;;;21.30;99.90;;;;;;5054260;28;20574;-57
2022/10/19 11:25:53;;;;;;;5.70;2.00;;;21.40;99.90;;;;;;5054766;28;20205;-58
2022/10/19 11:28:34;;;;;;;5.95;2.25;;;21.40;99.90;;;;;;5054825;28;20205;-58
2022/10/19 11:31:14;;;;;;;2.40;2.20;;;21.40;99.90;;;;;;5054634;28;20209;-58
2022/10/19 11:33:51;;;;;;;4.03;2.13;;;21.50;99.90;;;;;;5054423;28;20224;-59
2022/10/19 11:36:30;;;;;;;3.05;1.98;;;21.60;99.90;;;;;;5054535;28;20220;-58
2022/10/19 11:39:12;;;;;;;1.90;1.80;;;21.70;99.90;;;;;;5054947;28;20211;-60
2022/10/19 11:41:53;;;;;;;2.13;1.92;;;21.70;99.90;;;;;;5054748;28;20769;-58
2022/10/19 11:44:33;;;;;;;2.83;1.90;;;21.80;99.90;;;;;;5053997;28;20209;-58
2022/10/19 11:47:16;;;;;;;1.70;1.50;;;21.90;99.90;;;;;;5054484;28;20287;-58
2022/10/19 11:49:55;;;;;;;3.42;1.73;;;22.10;99.90;;;;;;5054422;28;20201;-58
2022/10/19 11:52:31;;;;;;;4.40;1.60;;;22.10;99.90;;;;;;5054591;28;20283;-58
2022/10/19 11:55:07;;;;;;;3.95;1.90;;;22.10;99.90;;;;;;5054303;28;20224;-59
2022/10/19 11:57:45;;;;;;;3.45;1.60;;;21.90;99.90;;;;;;5054453;28;20229;-58
2022/10/19 12:00:16;;;;;;;4.13;1.75;;;21.70;99.90;;;;;;5054894;28;20213;-58
2022/10/19 12:03:18;;;;;;;4.22;1.70;;;21.30;99.90;;;;;;5053798;28;20229;-58
2022/10/19 12:06:06;;;;;;;2.25;1.85;;;21.00;99.90;;;;;;5001643;28;20640;-57
2022/10/19 12:08:53;;;;;;;2.78;1.75;;;20.60;99.90;;;;;;5053987;28;20255;-57
2022/10/19 12:11:30;;;;;;;3.33;1.80;;;20.50;99.90;;;;;;5054105;28;20213;-57
2022/10/19 12:14:03;;;;;;;2.00;1.85;;;20.60;99.90;;;;;;5053578;28;20674;-59
2022/10/19 12:16:36;;;;;;;4.63;1.92;;;20.70;99.90;;;;;;5054210;28;20569;-58
2022/10/19 12:19:05;;;;;;;3.00;2.05;;;20.90;99.90;;;;;;5053948;28;20209;-58
2022/10/19 12:21:36;;;;;;;2.63;2.10;;;21.20;99.90;;;;;;5053781;28;20236;-57
2022/10/19 12:24:10;;;;;;;3.00;1.98;;;21.40;99.90;;;;;;5053590;28;20583;-57
2022/10/19 12:26:40;;;;;;;3.13;1.70;;;21.50;99.90;;;;;;5053754;28;20213;-57
2022/10/19 12:29:15;;;;;;;2.00;1.75;;;21.50;99.90;;;;;;5053831;28;20209;-57
2022/10/19 12:31:43;;;;;;;2.28;2.00;;;21.60;99.90;;;;;;5054003;28;20232;-57
2022/10/19 12:34:22;;;;;;;14.65;9.07;;;21.90;99.90;;;;;;5053308;28;20206;-60
2022/10/19 12:36:56;;;;;;;3.42;2.30;;;22.10;99.90;;;;;;5053697;28;20216;-57
2022/10/19 12:39:30;;;;;;;3.90;1.90;;;22.30;99.90;;;;;;5054072;28;20212;-58
2022/10/19 12:42:02;;;;;;;4.57;1.90;;;22.50;99.90;;;;;;5053554;28;20659;-61
2022/10/19 12:45:01;;;;;;;2.50;2.08;;;22.60;99.90;;;;;;5053673;28;20673;-58
2022/10/19 12:47:27;;;;;;;2.50;2.30;;;22.90;99.90;;;;;;5052894;28;20208;-57
2022/10/19 12:49:55;;;;;;;4.25;2.20;;;22.80;99.90;;;;;;5053976;28;20217;-63
2022/10/19 12:52:44;;;;;;;4.60;2.35;;;22.70;99.90;;;;;;5053763;28;20546;-58
2022/10/19 12:55:22;;;;;;;2.38;1.83;;;22.80;99.90;;;;;;5053584;28;20252;-58
2022/10/19 12:57:58;;;;;;;5.30;2.03;;;22.80;99.90;;;;;;5053117;28;20229;-57
2022/10/19 13:00:29;;;;;;;3.10;1.70;;;22.80;99.90;;;;;;5053279;28;20216;-57